Home   Weather   Germany   Oberhausen   Past weeks
Flag for Germany

Past Weather in Oberhausen, North Rhine-Westphalia, Germany — Yesterday and Last 2 Weeks

Currently: 72 °F. Clear. (Weather station: Duesseldorf, Germany). See more current weather

Past Weather in Oberhausen — Graph

°F

Oberhausen Temperature Yesterday

Maximum temperature yesterday: 72 °F (at 2:20 pm)
Minimum temperature yesterday: 48 °F (at 5:50 am)
Average temperature yesterday: 62 °F

High & Low Weather Summary for the Past Weeks

 TemperatureHumidityPressure
High91 °F (Aug 3, 3:20 pm)100% (Aug 5, 5:20 am)30.36 "Hg (Aug 5, 5:20 am)
Low48 °F (Aug 6, 5:50 am)28% (Aug 3, 5:50 pm)29.77 "Hg (Jul 25, 8:20 am)
Average70 °F61%30.05 "Hg
* Reported Jul 23 8:20 pm — Aug 7 8:50 pm, Oberhausen. Weather by CustomWeather, © 2022

Note: Actual official high and low records may vary slightly from our data, if they occured in-between our weather recording intervals... More about our weather records

Oberhausen Weather History for the Previous 24 Hours

Scroll right to see more
 ConditionsComfort  
Time TempWeatherWind HumidityBarometerVisibility
8:50 pm
Sun, Aug 7
73 °FSunny.9 mph38%30.18 "Hg10 mi
8:20 pm73 °FSunny.8 mph38%30.18 "Hg10 mi
7:50 pm75 °FSunny.12 mph36%30.18 "Hg10 mi
7:20 pm75 °FPassing clouds.12 mph36%30.18 "HgN/A
6:50 pm77 °FPassing clouds.9 mph32%30.18 "HgN/A
6:20 pm77 °FSunny.8 mph32%30.18 "Hg10 mi
5:50 pm77 °FPassing clouds.8 mph32%30.18 "HgN/A
5:20 pm79 °FPassing clouds.10 mph30%30.18 "HgN/A
4:50 pm79 °FPassing clouds.8 mph28%30.18 "HgN/A
4:20 pm79 °FPassing clouds.8 mph28%30.21 "HgN/A
3:50 pm79 °FPassing clouds.8 mph28%30.21 "HgN/A
3:20 pm79 °FPassing clouds.7 mph28%30.21 "HgN/A
2:50 pm77 °FSunny.7 mph30%30.21 "Hg10 mi
2:20 pm77 °FPassing clouds.9 mph30%30.24 "HgN/A
1:50 pm75 °FPassing clouds.8 mph31%30.24 "HgN/A
1:20 pm75 °FSunny.7 mph29%30.24 "Hg10 mi
12:20 pm75 °FSunny.7 mph29%30.24 "Hg10 mi
11:50 am73 °FPassing clouds.5 mph36%30.27 "HgN/A
11:20 am73 °FPassing clouds.3 mph36%30.27 "HgN/A
10:50 am72 °FSunny.2 mph41%30.27 "Hg10 mi
10:20 am70 °FSunny.3 mph43%30.27 "Hg10 mi
9:20 am66 °FSunny.1 mph52%30.30 "Hg10 mi
8:50 am64 °FSunny.1 mph56%30.30 "Hg10 mi
8:20 am61 °FSunny.1 mph72%30.30 "Hg10 mi
7:50 am57 °FSunny.2 mph77%30.27 "Hg10 mi
7:20 am54 °FSunny.2 mph88%30.27 "Hg10 mi
6:50 am50 °FSunny.1 mph94%30.27 "Hg10 mi
6:20 am50 °FSunny.1 mph88%30.27 "Hg10 mi
5:50 am50 °FClear.1 mph94%30.27 "Hg10 mi
5:20 am50 °FClear.2 mph94%30.27 "Hg10 mi
4:50 am52 °FClear.2 mph88%30.27 "Hg10 mi
4:20 am52 °FClear.2 mph88%30.27 "Hg10 mi
3:50 am52 °FClear.2 mph88%30.27 "Hg10 mi
3:20 am52 °FClear.5 mph88%30.27 "Hg10 mi
2:50 am52 °FClear.3 mph88%30.30 "Hg10 mi
1:20 am54 °FClear.2 mph82%30.30 "Hg10 mi
12:50 am54 °FClear.2 mph88%30.30 "Hg10 mi
12:20 am55 °FClear.3 mph82%30.30 "Hg10 mi
11:50 pm
Sat, Aug 6
55 °FClear.3 mph82%30.33 "Hg10 mi
11:20 pm59 °FClear.5 mph68%30.33 "Hg10 mi
10:50 pm61 °FClear.5 mph63%30.33 "Hg10 mi
10:20 pm63 °FClear.6 mph59%30.30 "Hg10 mi
Weather by CustomWeather, © 2022

See weather overview